Time;durP1;ratioP1;P1;durP2;ratioP2;P2;SDS_P1;SDS_P2;PMS_P1;PMS_P2;Temp;Humidity;BMP_temperature;BMP_pressure;BME280_temperature;BME280_humidity;BME280_pressure;Samples;Min_cycle;Max_cycle;Signal;HPM_P1;HPM_P2
2023/04/12 00:00:10;;;;;;;;;2.75;2.75;;;;;10.16;74.38;100372.56;5027104;28;10717;-63
2023/04/12 00:02:38;;;;;;;;;4.50;4.50;;;;;10.19;74.59;100371.31;5023730;28;11387;-67
2023/04/12 00:05:08;;;;;;;;;2.00;2.00;;;;;10.15;73.81;100365.53;5026520;28;10607;-65
2023/04/12 00:07:34;;;;;;;;;3.25;2.00;;;;;10.06;74.95;100346.06;5036050;28;10528;-66
2023/04/12 00:10:02;;;;;;;;;4.00;4.00;;;;;10.03;74.99;100348.31;5022134;28;10462;-65
2023/04/12 00:12:28;;;;;;;;;2.00;2.00;;;;;10.04;75.09;100342.72;5025146;28;10391;-66
2023/04/12 00:14:54;;;;;;;;;2.00;2.00;;;;;10.02;75.05;100328.69;5028886;28;10430;-66
2023/04/12 00:17:21;;;;;;;;;4.00;3.00;;;;;9.96;74.84;100313.34;5026587;28;10447;-66
2023/04/12 00:19:48;;;;;;;;;2.00;2.00;;;;;9.96;75.44;100312.50;5028411;28;10492;-65
2023/04/12 00:22:15;;;;;;;;;3.00;2.75;;;;;9.89;74.99;100310.66;5029270;28;10517;-66
2023/04/12 00:24:42;;;;;;;;;4.25;2.75;;;;;9.86;74.77;100308.38;5023164;28;10535;-65
2023/04/12 00:27:09;;;;;;;;;2.50;2.50;;;;;9.76;76.05;100296.31;5027789;28;10576;-66
2023/04/12 00:29:35;;;;;;;;;2.00;2.00;;;;;9.67;76.43;100276.88;5020378;28;10759;-64
2023/04/12 00:32:04;;;;;;;;;2.00;2.00;;;;;9.65;76.50;100278.94;5028909;28;11450;-65
2023/04/12 00:34:30;;;;;;;;;4.00;4.00;;;;;9.65;76.93;100274.41;5018264;28;10717;-66
2023/04/12 00:36:57;;;;;;;;;3.50;2.00;;;;;9.62;76.61;100253.28;5044862;28;10693;-66
2023/04/12 00:39:23;;;;;;;;;4.00;2.00;;;;;9.57;76.90;100246.88;5019865;28;10496;-65
2023/04/12 00:41:50;;;;;;;;;4.00;4.00;;;;;9.55;76.88;100236.31;5023984;28;10596;-66
2023/04/12 00:44:17;;;;;;;;;6.00;4.25;;;;;9.59;76.47;100229.50;5022281;28;10596;-66
2023/04/12 00:46:46;;;;;;;;;2.00;2.00;;;;;9.53;76.79;100226.81;5030480;28;10664;-66
2023/04/12 00:49:14;;;;;;;;;6.25;5.00;;;;;9.51;77.54;100218.13;5020638;28;10742;-65
2023/04/12 00:51:42;;;;;;;;;6.00;4.00;;;;;9.48;77.38;100224.75;5028908;28;10662;-65
2023/04/12 00:54:10;;;;;;;;;2.50;2.00;;;;;9.46;77.21;100205.31;5029127;28;10771;-66
2023/04/12 00:56:39;;;;;;;;;2.25;2.00;;;;;9.54;77.76;100197.06;5026490;28;10585;-66
2023/04/12 00:59:06;;;;;;;;;2.00;2.00;;;;;9.57;77.66;100180.53;5021787;28;10487;-66
2023/04/12 01:01:33;;;;;;;;;1.00;1.00;;;;;9.48;77.11;100183.59;5026090;28;10610;-65
2023/04/12 01:04:03;;;;;;;;;3.00;3.00;;;;;9.41;76.95;100179.06;5023564;28;10433;-63
2023/04/12 01:06:49;;;;;;;;;4.25;1.75;;;;;9.35;77.72;100174.47;5017102;28;10540;-66
2023/04/12 01:09:15;;;;;;;;;1.00;1.00;;;;;9.36;77.97;100173.47;5022176;28;10715;-66
2023/04/12 01:12:19;;;;;;;;;1.00;1.00;;;;;9.41;77.22;100157.56;5043528;28;10789;-66
2023/04/12 01:14:57;;;;;;;;;2.00;1.50;;;;;9.34;77.66;100150.50;5015327;28;10716;-66
2023/04/12 01:17:29;;;;;;;;;1.75;1.75;;;;;9.32;77.17;100142.69;5031686;28;10518;-66
2023/04/12 01:20:15;;;;;;;;;5.00;2.00;;;;;9.28;77.08;100128.00;5017443;28;10533;-66
2023/04/12 01:22:58;;;;;;;;;1.00;1.00;;;;;9.33;77.04;100120.16;5029564;28;10540;-66
2023/04/12 01:25:57;;;;;;;;;2.00;2.00;;;;;9.32;76.68;100113.13;5027738;28;11192;-66
2023/04/12 01:28:32;;;;;;;;;1.00;0.75;;;;;9.28;76.90;100114.56;5039726;28;10428;-66
2023/04/12 01:31:02;;;;;;;;;0.75;0.75;;;;;9.26;78.03;100095.13;5014390;28;10424;-66
2023/04/12 01:33:30;;;;;;;;;1.00;0.25;;;;;9.34;77.75;100089.56;5028793;28;10575;-67
2023/04/12 01:35:59;;;;;;;;;1.00;1.00;;;;;9.35;76.46;100085.84;5022612;28;10468;-68
2023/04/12 01:38:27;;;;;;;;;5.00;1.00;;;;;9.24;76.43;100074.91;5042156;28;10579;-65
2023/04/12 01:40:54;;;;;;;;;0.00;0.00;;;;;9.24;77.26;100064.97;5022515;28;10430;-66
2023/04/12 01:43:21;;;;;;;;;0.00;0.00;;;;;9.26;77.25;100059.41;5028010;28;10429;-64
2023/04/12 01:45:47;;;;;;;;;0.50;0.50;;;;;9.24;76.82;100056.94;5023080;28;10594;-66
2023/04/12 01:48:14;;;;;;;;;1.00;0.25;;;;;9.28;77.23;100051.97;5028668;28;10519;-65
2023/04/12 01:51:05;;;;;;;;;0.00;0.00;;;;;9.23;77.15;100052.56;5025708;28;10600;-65
2023/04/12 01:53:36;;;;;;;;;0.00;0.00;;;;;9.14;77.00;100035.00;5027360;28;11495;-66
2023/04/12 01:56:09;;;;;;;;;0.00;0.00;;;;;9.10;77.23;100034.59;5024588;28;10558;-66
2023/04/12 01:58:38;;;;;;;;;0.00;0.00;;;;;9.15;77.77;100020.53;5012946;28;10521;-67
2023/04/12 02:01:06;;;;;;;;;1.00;1.00;;;;;9.19;77.60;100029.00;5031446;28;10722;-67
2023/04/12 02:03:41;;;;;;;;;0.75;0.00;;;;;9.20;77.23;100001.16;5047580;28;10612;-65
2023/04/12 02:06:09;;;;;;;;;0.50;0.50;;;;;9.19;77.24;99992.25;5021424;28;10548;-66
2023/04/12 02:08:36;;;;;;;;;0.00;0.00;;;;;9.21;77.62;99992.88;5031751;28;10491;-66
2023/04/12 02:11:10;;;;;;;;;2.00;0.00;;;;;9.21;77.86;100003.63;5028812;28;11338;-66
2023/04/12 02:13:37;;;;;;;;;0.00;0.00;;;;;9.24;77.84;99992.47;5026321;28;10549;-65
2023/04/12 02:16:04;;;;;;;;;2.00;2.00;;;;;9.20;77.71;100001.16;5026550;28;10429;-66
2023/04/12 02:18:34;;;;;;;;;1.25;1.00;;;;;9.24;77.55;99983.59;5031592;28;10350;-67
2023/04/12 02:21:01;;;;;;;;;2.50;1.00;;;;;9.12;77.78;99973.47;5025043;28;10425;-66
2023/04/12 02:23:27;;;;;;;;;4.75;1.25;;;;;9.05;78.85;99972.63;5030763;28;10526;-65
2023/04/12 02:25:54;;;;;;;;;1.00;0.75;;;;;9.04;78.50;99967.47;5027053;28;10598;-67
2023/04/12 02:28:22;;;;;;;;;1.00;1.00;;;;;9.08;79.41;99960.66;5024941;28;10588;-67
2023/04/12 02:30:52;;;;;;;;;0.75;0.25;;;;;9.10;78.10;99939.78;5028353;28;10570;-63
2023/04/12 02:33:24;;;;;;;;;0.50;0.50;;;;;9.08;79.00;99937.31;5026599;28;10511;-67
2023/04/12 02:35:51;;;;;;;;;1.00;1.00;;;;;9.09;79.00;99935.47;5026211;28;10498;-66
2023/04/12 02:38:19;;;;;;;;;2.00;2.00;;;;;9.06;79.32;99933.19;5025555;28;10461;-65
2023/04/12 02:40:46;;;;;;;;;3.25;1.00;;;;;9.07;79.25;99921.41;5046182;28;11274;-67
2023/04/12 02:43:16;;;;;;;;;1.25;1.00;;;;;9.07;79.64;99916.84;5030831;28;10521;-67
2023/04/12 02:45:47;;;;;;;;;2.00;2.00;;;;;9.15;79.92;99900.56;5023209;28;10518;-65
2023/04/12 02:48:13;;;;;;;;;2.75;2.00;;;;;9.12;78.82;99892.09;5028585;28;10657;-65
2023/04/12 02:50:41;;;;;;;;;1.00;1.00;;;;;9.08;78.57;99889.00;5027957;28;10553;-66
2023/04/12 02:53:14;;;;;;;;;1.00;1.00;;;;;9.02;79.39;99886.31;5029548;28;10641;-67
2023/04/12 02:55:44;;;;;;;;;1.75;1.00;;;;;8.99;79.25;99881.34;5020404;28;10506;-66
2023/04/12 02:58:12;;;;;;;;;2.00;2.00;;;;;8.95;79.55;99877.44;5046263;28;10596;-65
2023/04/12 03:00:45;;;;;;;;;1.75;1.75;;;;;8.99;80.12;99878.66;5025323;28;10618;-66
2023/04/12 03:03:16;;;;;;;;;1.00;1.00;;;;;9.06;80.08;99876.81;5029224;28;10520;-65
2023/04/12 03:05:46;;;;;;;;;1.50;1.25;;;;;9.05;79.68;99859.06;5018471;28;10596;-64
2023/04/12 03:08:14;;;;;;;;;1.25;1.00;;;;;9.05;80.02;99857.19;5045115;28;11212;-67
2023/04/12 03:10:49;;;;;;;;;4.00;2.00;;;;;8.90;80.02;99854.72;5030186;28;10759;-68
2023/04/12 03:13:16;;;;;;;;;1.25;1.00;;;;;9.01;81.27;99855.97;5047218;28;10521;-65
2023/04/12 03:15:46;;;;;;;;;2.50;2.50;;;;;8.94;80.90;99851.63;5028005;28;10521;-66
2023/04/12 03:18:13;;;;;;;;;1.50;1.00;;;;;8.89;80.87;99846.91;5036830;28;10641;-66
2023/04/12 03:20:46;;;;;;;;;1.75;1.75;;;;;8.86;81.13;99823.16;5030386;28;10514;-66
2023/04/12 03:23:14;;;;;;;;;3.00;3.00;;;;;8.90;81.50;99821.69;5021744;28;10598;-66
2023/04/12 03:25:47;;;;;;;;;2.25;2.25;;;;;8.89;81.83;99833.47;5043497;28;10810;-66
2023/04/12 03:28:34;;;;;;;;;1.75;1.75;;;;;8.87;81.26;99824.78;5028182;28;10530;-66
2023/04/12 03:31:04;;;;;;;;;2.25;2.25;;;;;8.88;81.71;99816.53;5025215;28;10547;-66
2023/04/12 03:33:40;;;;;;;;;3.00;2.00;;;;;8.80;81.48;99806.03;5024841;28;10574;-66
2023/04/12 03:36:16;;;;;;;;;1.00;1.00;;;;;8.85;82.02;99808.09;5026842;28;10741;-66
2023/04/12 03:38:47;;;;;;;;;1.00;1.00;;;;;8.84;82.37;99809.13;5022683;28;10605;-64
2023/04/12 03:41:14;;;;;;;;;2.00;1.00;;;;;8.77;82.30;99792.19;5028591;28;10681;-66
2023/04/12 03:43:41;;;;;;;;;1.00;1.00;;;;;8.80;82.42;99791.78;5044930;28;10463;-66
2023/04/12 03:46:16;;;;;;;;;1.00;1.00;;;;;8.83;82.79;99781.47;5019515;28;10436;-66
2023/04/12 03:48:48;;;;;;;;;1.25;1.25;;;;;8.91;82.89;99783.09;5029735;28;10801;-63
2023/04/12 03:51:15;;;;;;;;;4.00;1.00;;;;;8.87;82.76;99771.97;5024371;28;10579;-66
2023/04/12 03:53:43;;;;;;;;;3.75;1.25;;;;;8.82;83.12;99771.75;5047869;28;10740;-66
2023/04/12 03:56:13;;;;;;;;;2.00;1.00;;;;;8.86;82.77;99758.75;5028733;28;10604;-66
2023/04/12 03:58:43;;;;;;;;;1.25;1.25;;;;;8.86;83.04;99750.69;5045827;28;11582;-66
2023/04/12 04:01:12;;;;;;;;;2.00;2.00;;;;;8.83;82.24;99753.78;5023479;28;11269;-64
2023/04/12 04:03:40;;;;;;;;;1.00;1.00;;;;;8.73;82.71;99751.53;5045566;28;10539;-67
2023/04/12 04:06:18;;;;;;;;;0.50;0.00;;;;;8.75;83.46;99760.22;5017465;28;10539;-65
2023/04/12 04:08:44;;;;;;;;;1.00;1.00;;;;;8.78;83.17;99754.41;5026794;28;10661;-66
2023/04/12 04:11:12;;;;;;;;;0.75;0.75;;;;;8.78;83.53;99761.66;5028880;28;11591;-65
2023/04/12 04:13:42;;;;;;;;;2.75;2.00;;;;;8.75;83.66;99754.00;5024666;28;10671;-66
2023/04/12 04:16:15;;;;;;;;;3.00;1.75;;;;;8.82;84.02;99736.88;5026940;28;10851;-66
2023/04/12 04:18:42;;;;;;;;;1.00;1.00;;;;;8.81;83.50;99743.28;5022921;28;10732;-66
2023/04/12 04:21:13;;;;;;;;;1.00;1.00;;;;;8.88;83.67;99730.66;5026280;28;10636;-66
2023/04/12 04:23:43;;;;;;;;;1.00;0.00;;;;;8.91;83.99;99732.09;5038515;28;11425;-66
2023/04/12 04:26:10;;;;;;;;;1.75;1.75;;;;;8.88;83.12;99733.34;5018523;28;10586;-66
2023/04/12 04:28:54;;;;;;;;;1.00;1.00;;;;;8.84;82.86;99726.75;5027431;28;10714;-66
2023/04/12 04:31:33;;;;;;;;;1.00;1.00;;;;;8.86;83.52;99729.22;5043846;28;10598;-66
2023/04/12 04:34:04;;;;;;;;;3.50;3.50;;;;;8.89;83.70;99726.94;5015135;28;10809;-65
2023/04/12 04:36:36;;;;;;;;;1.50;1.50;;;;;8.91;82.61;99734.78;5026114;28;10592;-66
2023/04/12 04:39:06;;;;;;;;;1.75;1.75;;;;;8.85;83.48;99735.63;5027433;28;10755;-67
2023/04/12 04:41:38;;;;;;;;;2.00;2.00;;;;;8.83;83.61;99721.59;5029115;28;10655;-66
2023/04/12 04:44:10;;;;;;;;;2.50;2.50;;;;;8.84;84.16;99726.75;5024905;28;10895;-66
2023/04/12 04:46:43;;;;;;;;;4.00;4.00;;;;;8.88;83.99;99725.31;5027561;28;10740;-66
2023/04/12 04:49:09;;;;;;;;;5.00;4.00;;;;;8.89;84.04;99724.25;5021167;28;11365;-66
2023/04/12 04:51:36;;;;;;;;;4.00;1.00;;;;;8.97;84.01;99712.47;5026977;28;10598;-66
2023/04/12 04:54:03;;;;;;;;;1.00;1.00;;;;;9.02;83.86;99722.56;5021786;28;10691;-64
2023/04/12 04:56:31;;;;;;;;;3.75;3.50;;;;;8.95;82.53;99719.91;5024850;28;10739;-67
2023/04/12 04:58:58;;;;;;;;;2.00;2.00;;;;;8.88;83.20;99713.75;5029173;28;10660;-66
2023/04/12 05:01:26;;;;;;;;;1.00;1.00;;;;;8.89;84.23;99712.72;5026365;28;10544;-66
2023/04/12 05:03:55;;;;;;;;;1.75;1.75;;;;;8.89;84.33;99720.75;5022109;28;10597;-65
2023/04/12 05:06:26;;;;;;;;;2.00;2.00;;;;;8.91;83.81;99727.56;5040358;28;10674;-65
2023/04/12 05:08:53;;;;;;;;;1.00;1.00;;;;;8.98;84.27;99726.72;5020131;28;10668;-67
2023/04/12 05:11:21;;;;;;;;;2.00;2.00;;;;;9.02;84.20;99718.03;5026573;28;10621;-66
2023/04/12 05:13:47;;;;;;;;;2.00;2.00;;;;;8.99;84.39;99728.34;5022226;28;10683;-66
2023/04/12 05:16:15;;;;;;;;;2.00;1.00;;;;;9.02;84.50;99718.03;5036477;28;10768;-66
2023/04/12 05:18:43;;;;;;;;;3.75;3.75;;;;;9.02;84.29;99719.88;5030135;28;10578;-64
2023/04/12 05:21:09;;;;;;;;;11.25;7.50;;;;;9.06;84.43;99727.31;5025912;28;10581;-66
2023/04/12 05:23:41;;;;;;;;;16.75;16.75;;;;;9.08;84.58;99725.25;5023736;28;10923;-67
2023/04/12 05:26:10;;;;;;;;;3.75;2.00;;;;;9.06;84.48;99731.84;5026302;28;11013;-65
2023/04/12 05:28:38;;;;;;;;;4.25;3.25;;;;;9.05;83.89;99719.47;5032281;28;10518;-67
2023/04/12 05:31:05;;;;;;;;;4.00;3.00;;;;;9.04;84.38;99725.88;5019518;28;10684;-68
2023/04/12 05:33:36;;;;;;;;;4.50;2.00;;;;;9.09;84.41;99715.31;5014052;28;10703;-68
2023/04/12 05:36:03;;;;;;;;;6.00;6.00;;;;;9.12;84.37;99715.72;5015259;28;10634;-66
2023/04/12 05:38:30;;;;;;;;;5.75;4.50;;;;;9.14;84.30;99715.50;5029518;28;10796;-66
2023/04/12 05:41:05;;;;;;;;;30.25;25.50;;;;;9.16;84.38;99708.91;5032234;28;10615;-67
2023/04/12 05:43:32;;;;;;;;;9.50;9.50;;;;;9.22;83.80;99720.63;5023285;28;11464;-66
2023/04/12 05:45:59;;;;;;;;;10.00;10.00;;;;;9.25;84.01;99704.09;5022797;28;11596;-67
2023/04/12 05:48:26;;;;;;;;;7.00;7.00;;;;;9.27;83.44;99712.75;5031194;28;10848;-66
2023/04/12 05:50:55;;;;;;;;;2.75;2.75;;;;;9.28;83.80;99708.25;5025993;28;11474;-67
2023/04/12 05:53:22;;;;;;;;;6.00;6.00;;;;;9.25;83.68;99697.91;5030966;28;10613;-67
2023/04/12 05:55:50;;;;;;;;;8.00;5.00;;;;;9.23;84.17;99698.13;5031662;28;10985;-67
2023/04/12 05:58:17;;;;;;;;;6.00;6.00;;;;;9.32;84.40;99706.78;5032024;28;10620;-67
2023/04/12 06:00:45;;;;;;;;;6.75;6.00;;;;;9.33;83.99;99705.72;5028055;28;10725;-67
2023/04/12 06:03:12;;;;;;;;;14.50;12.25;;;;;9.34;83.82;99704.69;5031583;28;10632;-67
2023/04/12 06:05:38;;;;;;;;;16.00;12.00;;;;;9.35;84.19;99717.88;5031116;28;11111;-67
2023/04/12 06:08:07;;;;;;;;;24.50;23.00;;;;;9.37;83.51;99723.88;5032639;28;10998;-67
2023/04/12 06:10:34;;;;;;;;;14.50;10.50;;;;;9.41;83.57;99713.53;5031770;28;11407;-66
2023/04/12 06:13:02;;;;;;;;;13.25;11.00;;;;;9.40;83.58;99712.72;5033092;28;10705;-67
2023/04/12 06:15:30;;;;;;;;;6.50;6.50;;;;;9.43;83.87;99705.25;5031118;28;11086;-65
2023/04/12 06:17:58;;;;;;;;;5.00;5.00;;;;;9.41;83.99;99713.53;5027073;28;10844;-66
2023/04/12 06:20:25;;;;;;;;;7.75;7.25;;;;;9.45;83.51;99719.31;5031515;28;10627;-67
2023/04/12 06:22:52;;;;;;;;;7.00;7.00;;;;;9.49;83.72;99717.84;5031617;28;10645;-64
2023/04/12 06:25:20;;;;;;;;;19.50;18.75;;;;;9.52;83.67;99720.06;5031035;28;10683;-64
2023/04/12 06:27:46;;;;;;;;;15.50;13.75;;;;;9.51;83.46;99713.88;5031374;28;11123;-65
2023/04/12 06:30:15;;;;;;;;;8.50;8.25;;;;;9.50;83.30;99706.06;5031047;28;10946;-66
2023/04/12 06:32:42;;;;;;;;;5.00;5.00;;;;;9.52;83.90;99698.59;5028594;28;10690;-65
2023/04/12 06:35:09;;;;;;;;;11.00;7.50;;;;;9.56;83.57;99692.59;5011907;28;11494;-65
2023/04/12 06:37:36;;;;;;;;;11.00;11.00;;;;;9.56;83.35;99687.22;5011203;28;10680;-65
2023/04/12 06:40:03;;;;;;;;;10.00;7.50;;;;;9.56;83.63;99689.91;5012647;28;10982;-66
2023/04/12 06:42:30;;;;;;;;;7.50;7.00;;;;;9.60;83.74;99695.66;5012420;28;10831;-64
2023/04/12 06:44:56;;;;;;;;;9.00;5.00;;;;;9.61;83.94;99697.31;5011947;28;10744;-64
2023/04/12 06:47:24;;;;;;;;;9.75;9.75;;;;;9.65;83.72;99703.91;5012477;28;10661;-65
2023/04/12 06:49:54;;;;;;;;;14.25;10.50;;;;;9.69;83.21;99697.06;5015309;28;10896;-67
2023/04/12 06:52:25;;;;;;;;;8.25;8.25;;;;;9.72;83.44;99698.47;5011258;28;10954;-66
2023/04/12 06:54:53;;;;;;;;;10.75;8.00;;;;;9.73;83.54;99706.34;5011118;28;10591;-67
2023/04/12 06:57:19;;;;;;;;;6.75;6.75;;;;;9.76;83.55;99702.38;5012477;28;10889;-68
2023/04/12 06:59:46;;;;;;;;;7.25;7.25;;;;;9.77;83.35;99704.03;5012486;28;10677;-67
2023/04/12 07:02:12;;;;;;;;;12.25;10.50;;;;;9.79;82.98;99705.44;5012209;28;10678;-67
2023/04/12 07:04:39;;;;;;;;;12.00;9.25;;;;;9.74;82.68;99697.22;5011191;28;10815;-66
2023/04/12 07:07:09;;;;;;;;;11.00;9.00;;;;;9.70;82.63;99697.88;5014761;28;10802;-68
2023/04/12 07:09:42;;;;;;;;;9.50;8.00;;;;;9.66;83.30;99700.16;5012101;28;10839;-67
2023/04/12 07:12:08;;;;;;;;;10.00;6.75;;;;;9.68;83.46;99699.94;5012381;28;10751;-67
2023/04/12 07:14:35;;;;;;;;;6.75;6.75;;;;;9.66;82.68;99701.00;5020685;28;10624;-67
2023/04/12 07:17:01;;;;;;;;;7.75;6.50;;;;;9.61;83.06;99703.50;5031646;28;10705;-66
2023/04/12 07:19:30;;;;;;;;;4.25;4.00;;;;;9.66;83.39;99706.38;5031740;28;10508;-66
2023/04/12 07:21:56;;;;;;;;;7.00;5.50;;;;;9.71;82.49;99705.72;5031544;28;10483;-66
2023/04/12 07:24:23;;;;;;;;;7.50;6.50;;;;;9.77;82.67;99704.03;5031217;28;10463;-65
2023/04/12 07:26:53;;;;;;;;;3.75;3.75;;;;;9.83;82.71;99709.34;5031225;28;11292;-67
2023/04/12 07:29:19;;;;;;;;;7.00;4.50;;;;;9.87;82.54;99705.19;5026931;28;10499;-66
2023/04/12 07:31:46;;;;;;;;;6.00;4.25;;;;;9.92;81.94;99709.91;5031709;28;10540;-67
2023/04/12 07:34:12;;;;;;;;;5.50;3.75;;;;;9.89;81.37;99705.00;5031158;28;10538;-67
2023/04/12 07:36:39;;;;;;;;;6.00;5.75;;;;;9.90;81.61;99706.63;5031298;28;10380;-69
2023/04/12 07:39:05;;;;;;;;;5.50;2.50;;;;;9.95;81.71;99703.28;5031288;28;10451;-66
2023/04/12 07:41:32;;;;;;;;;3.50;3.25;;;;;10.02;81.20;99698.69;5031281;28;10367;-67
2023/04/12 07:43:58;;;;;;;;;5.25;5.00;;;;;10.04;80.95;99696.59;5027476;28;10385;-66
2023/04/12 07:46:25;;;;;;;;;3.50;3.50;;;;;10.09;80.88;99691.41;5029063;28;11417;-67
2023/04/12 07:48:51;;;;;;;;;8.00;6.00;;;;;10.10;79.78;99703.78;5031099;28;10509;-67
2023/04/12 07:51:18;;;;;;;;;5.25;3.00;;;;;10.08;78.62;99697.78;5030823;28;10508;-66
2023/04/12 07:53:47;;;;;;;;;5.50;5.25;;;;;10.06;79.23;99697.22;5029469;28;10395;-67
2023/04/12 07:56:14;;;;;;;;;13.25;11.00;;;;;10.13;78.96;99689.91;5030632;28;10429;-67
2023/04/12 07:58:40;;;;;;;;;5.00;3.00;;;;;10.17;78.81;99685.75;5029524;28;10530;-67
2023/04/12 08:01:07;;;;;;;;;9.00;9.00;;;;;10.33;78.88;99679.84;5030058;28;10436;-67
2023/04/12 08:03:33;;;;;;;;;7.25;5.50;;;;;10.59;78.56;99684.13;5029724;28;10593;-67
2023/04/12 08:06:00;;;;;;;;;6.75;6.00;;;;;10.86;78.14;99673.91;5029822;28;10420;-67
2023/04/12 08:08:26;;;;;;;;;18.00;14.25;;;;;11.01;76.76;99675.38;5030834;28;10341;-66
2023/04/12 08:10:53;;;;;;;;;6.25;5.50;;;;;11.01;75.60;99672.69;5031000;28;10568;-66
2023/04/12 08:13:20;;;;;;;;;3.00;3.00;;;;;11.09;74.96;99667.81;5031012;28;10403;-65
2023/04/12 08:15:46;;;;;;;;;3.50;3.50;;;;;11.17;74.40;99668.56;5030910;28;10097;-66
2023/04/12 08:18:14;;;;;;;;;6.75;6.75;;;;;11.25;74.64;99676.31;5030284;28;10087;-66
2023/04/12 08:20:42;;;;;;;;;4.00;2.00;;;;;11.21;74.05;99673.25;5013686;28;10301;-65
2023/04/12 08:23:10;;;;;;;;;8.25;6.25;;;;;11.21;74.19;99670.56;5028732;28;10234;-66
2023/04/12 08:25:37;;;;;;;;;2.50;2.50;;;;;11.35;74.26;99671.25;5030117;28;10284;-65
2023/04/12 08:28:06;;;;;;;;;6.50;6.00;;;;;11.47;73.35;99679.38;5030813;28;10073;-66
2023/04/12 08:30:33;;;;;;;;;6.75;6.75;;;;;11.45;72.77;99676.06;5030172;28;10160;-66
2023/04/12 08:33:00;;;;;;;;;4.25;4.25;;;;;11.49;72.56;99661.91;5030513;28;10214;-67
2023/04/12 08:35:26;;;;;;;;;3.25;3.25;;;;;11.47;71.95;99677.50;5022948;28;10030;-66
2023/04/12 08:37:53;;;;;;;;;6.00;6.00;;;;;11.41;72.30;99669.50;5009484;28;10680;-66
2023/04/12 08:40:20;;;;;;;;;12.00;8.50;;;;;11.43;72.04;99672.78;5010683;28;10095;-66
2023/04/12 08:42:47;;;;;;;;;3.75;3.75;;;;;11.47;71.96;99677.50;5010297;28;10351;-67
2023/04/12 08:45:14;;;;;;;;;4.00;4.00;;;;;11.60;71.25;99680.00;5008927;28;10169;-66
2023/04/12 08:47:42;;;;;;;;;8.25;8.25;;;;;11.68;70.64;99678.03;5010333;28;10058;-67
2023/04/12 08:50:12;;;;;;;;;3.50;2.50;;;;;11.83;71.05;99683.84;5010538;28;10287;-66
2023/04/12 08:52:40;;;;;;;;;6.00;6.00;;;;;11.92;70.83;99674.38;5010352;28;9993;-67
2023/04/12 08:55:08;;;;;;;;;6.25;5.25;;;;;12.01;69.98;99670.28;5009827;28;10180;-67
2023/04/12 08:57:38;;;;;;;;;5.00;3.00;;;;;11.88;68.85;99682.09;5010081;28;9974;-66
2023/04/12 09:00:07;;;;;;;;;3.75;3.75;;;;;11.71;67.85;99675.69;5022664;28;9945;-65
2023/04/12 09:02:37;;;;;;;;;5.00;5.00;;;;;11.56;66.55;99669.91;5028410;28;9908;-66
2023/04/12 09:05:05;;;;;;;;;5.00;5.00;;;;;11.55;66.22;99673.66;5029668;28;10020;-66
2023/04/12 09:07:32;;;;;;;;;5.75;2.75;;;;;11.62;65.94;99683.25;5029793;28;9856;-67
2023/04/12 09:09:59;;;;;;;;;9.00;9.00;;;;;11.68;64.34;99665.38;5030329;28;10650;-68
2023/04/12 09:12:26;;;;;;;;;1.75;1.75;;;;;11.75;63.54;99671.50;5028274;28;10312;-68
2023/04/12 09:15:13;;;;;;;;;4.00;4.00;;;;;11.83;63.30;99664.97;5020119;28;9949;-66
2023/04/12 09:17:41;;;;;;;;;17.25;16.25;;;;;12.04;63.29;99674.41;5029730;28;10072;-67
2023/04/12 09:20:11;;;;;;;;;2.00;2.00;;;;;12.12;62.84;99677.56;5029958;28;10783;-67
2023/04/12 09:22:43;;;;;;;;;6.25;6.25;;;;;12.13;61.94;99665.72;5029842;28;10054;-67
2023/04/12 09:25:14;;;;;;;;;3.00;3.00;;;;;12.15;62.05;99664.66;5029249;28;10889;-67
2023/04/12 09:27:48;;;;;;;;;3.25;2.25;;;;;12.17;61.68;99674.16;5029912;28;9926;-66
2023/04/12 09:30:16;;;;;;;;;2.00;0.00;;;;;12.20;61.43;99671.00;5011811;28;10564;-66
2023/04/12 09:32:43;;;;;;;;;1.75;1.75;;;;;12.17;61.40;99670.66;5008867;28;9883;-67
2023/04/12 09:35:10;;;;;;;;;0.75;0.75;;;;;12.09;61.02;99679.91;5009771;28;9962;-67
2023/04/12 09:37:36;;;;;;;;;2.00;1.00;;;;;11.98;61.07;99683.41;5009882;28;9900;-66
2023/04/12 09:40:08;;;;;;;;;2.50;1.75;;;;;11.99;61.59;99676.94;5008453;28;10038;-66
2023/04/12 09:42:47;;;;;;;;;3.75;0.50;;;;;12.02;61.25;99692.66;5010034;28;10054;-65
2023/04/12 09:45:20;;;;;;;;;1.25;1.25;;;;;12.02;61.15;99689.97;5012594;28;9827;-67
2023/04/12 09:47:47;;;;;;;;;2.00;2.00;;;;;11.91;60.30;99688.06;5029666;28;10028;-67
2023/04/12 09:50:27;;;;;;;;;4.00;3.25;;;;;11.88;60.57;99684.78;5029553;28;9831;-66
2023/04/12 09:52:58;;;;;;;;;2.00;2.00;;;;;11.79;60.57;99686.16;5029640;28;9908;-66
2023/04/12 09:55:27;;;;;;;;;0.00;0.00;;;;;11.74;60.00;99691.38;5027799;28;9881;-66
2023/04/12 09:57:54;;;;;;;;;0.00;0.00;;;;;11.70;59.71;99679.44;5029312;28;9897;-66
2023/04/12 10:00:24;;;;;;;;;2.00;1.00;;;;;11.71;60.16;99675.69;5029539;28;9895;-66
2023/04/12 10:02:52;;;;;;;;;0.00;0.00;;;;;11.75;60.27;99676.03;5023045;28;9744;-66
2023/04/12 10:05:21;;;;;;;;;0.50;0.50;;;;;11.74;60.72;99672.53;5029165;28;10029;-65
2023/04/12 10:07:49;;;;;;;;;0.00;0.00;;;;;11.76;60.55;99667.72;5029371;28;9973;-66
2023/04/12 10:10:17;;;;;;;;;3.50;2.00;;;;;11.85;60.42;99673.66;5029290;28;9927;-66
2023/04/12 10:12:45;;;;;;;;;1.50;1.00;;;;;11.88;60.03;99668.63;5030111;28;9955;-66
2023/04/12 10:15:16;;;;;;;;;2.00;1.00;;;;;12.07;60.27;99669.34;5026704;28;10790;-66
2023/04/12 10:17:53;;;;;;;;;4.00;2.50;;;;;12.27;59.73;99670.88;5031638;28;9971;-67
2023/04/12 10:20:21;;;;;;;;;1.00;1.00;;;;;12.43;58.42;99672.88;5033059;28;10471;-65
2023/04/12 10:22:52;;;;;;;;;3.25;0.25;;;;;12.56;56.80;99679.94;5033190;28;9772;-65
2023/04/12 10:25:24;;;;;;;;;1.00;1.00;;;;;12.61;57.08;99674.66;5031568;28;9621;-66
2023/04/12 10:27:52;;;;;;;;;3.00;2.25;;;;;12.70;56.81;99667.00;5032895;28;9700;-66
2023/04/12 10:30:31;;;;;;;;;1.00;0.00;;;;;12.96;56.65;99661.06;5017598;28;9682;-67
2023/04/12 10:33:01;;;;;;;;;2.00;0.00;;;;;13.28;56.32;99661.47;5013006;28;10399;-66
2023/04/12 10:35:29;;;;;;;;;1.00;1.00;;;;;13.53;55.88;99660.31;5012623;28;9382;-66
2023/04/12 10:38:00;;;;;;;;;1.50;0.50;;;;;13.68;54.60;99657.88;5011753;28;9565;-66
2023/04/12 10:40:27;;;;;;;;;0.00;0.00;;;;;13.80;54.07;99666.75;5012966;28;9545;-66
2023/04/12 10:43:25;;;;;;;;;0.00;0.00;;;;;13.88;53.14;99664.72;5012705;28;9531;-68
2023/04/12 10:45:52;;;;;;;;;1.00;1.00;;;;;13.99;51.99;99667.34;5012427;28;10119;-65
2023/04/12 10:48:36;;;;;;;;;2.67;1.00;;;;;14.03;50.48;99670.38;5013068;28;9450;-66
2023/04/12 10:51:22;;;;;;;;;2.00;1.00;;;;;14.02;50.20;99660.63;5012862;28;9251;-67
2023/04/12 10:53:49;;;;;;;;;2.00;0.00;;;;;14.15;50.52;99663.00;5011349;28;9317;-66
2023/04/12 10:56:33;;;;;;;;;1.00;1.00;;;;;14.21;49.88;99661.19;5011276;28;10292;-66
2023/04/12 10:59:01;;;;;;;;;0.33;0.33;;;;;14.15;50.26;99659.47;5012368;28;9334;-66
2023/04/12 11:02:01;;;;;;;;;0.00;0.00;;;;;14.08;48.75;99656.94;5013557;28;9311;-65
2023/04/12 11:04:28;;;;;;;;;1.00;0.00;;;;;13.89;49.93;99666.34;5011938;28;9439;-65
2023/04/12 11:07:10;;;;;;;;;1.67;1.00;;;;;14.08;50.65;99668.56;5011190;28;9327;-64
2023/04/12 11:09:58;;;;;;;;;1.00;1.00;;;;;14.24;49.64;99671.53;5025377;28;9928;-66
2023/04/12 11:12:28;;;;;;;;;1.00;1.00;;;;;14.25;50.07;99667.75;5030874;28;9121;-66
2023/04/12 11:15:00;;;;;;;;;1.33;0.00;;;;;14.07;49.19;99666.13;5031602;28;9229;-65
2023/04/12 11:17:35;;;;;;;;;0.00;0.00;;;;;13.73;50.19;99674.22;5030711;28;9254;-64
2023/04/12 11:20:04;;;;;;;;;2.33;1.67;;;;;13.57;50.46;99672.28;5031821;28;9236;-65
2023/04/12 11:22:32;;;;;;;;;0.00;0.00;;;;;13.59;51.25;99670.16;5030933;28;10015;-65
2023/04/12 11:25:01;;;;;;;;;0.00;0.00;;;;;13.60;51.34;99661.78;5010707;28;9227;-65
2023/04/12 11:27:29;;;;;;;;;2.67;2.00;;;;;13.83;51.66;99666.25;5011848;28;10094;-65
2023/04/12 11:29:57;;;;;;;;;2.00;1.00;;;;;14.18;52.14;99664.38;5011877;28;9412;-65
2023/04/12 11:32:29;;;;;;;;;2.00;1.00;;;;;14.45;50.95;99661.81;5011833;28;9303;-67
2023/04/12 11:34:57;;;;;;;;;3.00;1.00;;;;;14.50;50.17;99667.34;5011391;28;9383;-65
2023/04/12 11:37:26;;;;;;;;;0.67;0.33;;;;;14.41;50.51;99672.31;5010461;28;9288;-65
2023/04/12 11:39:56;;;;;;;;;1.67;1.00;;;;;14.20;50.91;99670.38;5012381;28;9225;-65
2023/04/12 11:42:23;;;;;;;;;0.00;0.00;;;;;14.02;51.20;99672.28;5011407;28;9238;-64
2023/04/12 11:44:51;;;;;;;;;1.00;0.75;;;;;13.93;52.05;99675.63;5011157;28;9396;-66
2023/04/12 11:47:27;;;;;;;;;1.33;1.00;;;;;13.84;51.91;99677.91;5019447;28;9444;-64